createdAt,value
2018-04-16T00:01:18.723Z,85.04
2018-04-16T00:02:18.641Z,84.98
2018-04-16T00:03:18.739Z,84.89
2018-04-16T00:04:18.751Z,84.91
2018-04-16T00:05:18.818Z,84.90
2018-04-16T00:06:18.823Z,84.95
2018-04-16T00:07:18.543Z,84.93
2018-04-16T00:08:18.665Z,84.99
2018-04-16T00:09:18.661Z,84.92
2018-04-16T00:10:18.755Z,85.07
2018-04-16T00:11:18.781Z,85.00
2018-04-16T00:12:21.007Z,84.98
2018-04-16T00:13:18.656Z,85.04
2018-04-16T00:14:18.547Z,85.09
2018-04-16T00:15:21.048Z,85.12
2018-04-16T00:16:18.786Z,85.15
2018-04-16T00:17:18.851Z,85.16
2018-04-16T00:18:18.915Z,85.16
2018-04-16T00:19:21.044Z,85.12
2018-04-16T00:20:18.563Z,85.15
2018-04-16T00:21:18.909Z,85.18
2018-04-16T00:22:19.017Z,85.23
2018-04-16T00:23:19.032Z,85.21
2018-04-16T00:24:18.912Z,85.21
2018-04-16T00:25:18.879Z,85.19
2018-04-16T00:26:21.005Z,85.19
2018-04-16T00:27:18.935Z,85.09
2018-04-16T00:28:18.956Z,85.02
2018-04-16T00:29:18.990Z,85.01
2018-04-16T00:30:19.055Z,84.99
2018-04-16T00:31:20.997Z,84.86
2018-04-16T00:32:19.055Z,84.85
2018-04-16T00:33:18.612Z,84.76
2018-04-16T00:34:18.738Z,84.80
2018-04-16T00:35:18.716Z,84.80
2018-04-16T00:36:18.782Z,84.83
2018-04-16T00:37:18.768Z,84.73
2018-04-16T00:38:18.763Z,84.67
2018-04-16T00:39:18.830Z,84.66
2018-04-16T00:40:21.056Z,84.62
2018-04-16T00:41:18.759Z,84.54
2018-04-16T00:42:21.003Z,84.42
2018-04-16T00:43:18.616Z,84.49
2018-04-16T00:44:18.584Z,84.47
2018-04-16T00:45:18.615Z,84.52
2018-04-16T00:46:19.004Z,84.45
2018-04-16T00:47:18.957Z,84.54
2018-04-16T00:48:18.577Z,84.57
2018-04-16T00:49:21.052Z,84.59
2018-04-16T00:50:18.647Z,84.58
2018-04-16T00:51:18.719Z,84.52
2018-04-16T00:52:21.067Z,84.54
2018-04-16T00:53:21.494Z,84.54
2018-04-16T00:54:18.706Z,84.47
2018-04-16T00:55:18.843Z,84.45
2018-04-16T00:56:18.856Z,84.40
2018-04-16T00:57:18.931Z,84.26
2018-04-16T00:58:21.064Z,84.15
2018-04-16T00:59:20.987Z,84.08
2018-04-16T01:00:18.151Z,84.06
2018-04-16T01:01:20.995Z,84.00
2018-04-16T01:02:18.560Z,84.08
2018-04-16T01:03:18.744Z,83.84
2018-04-16T01:04:18.956Z,83.75
2018-04-16T01:05:18.955Z,83.72
2018-04-16T01:06:18.906Z,83.69
2018-04-16T01:07:19.052Z,83.68
2018-04-16T01:08:21.043Z,83.54
2018-04-16T01:09:19.034Z,83.57
2018-04-16T01:10:18.551Z,83.43
2018-04-16T01:11:18.958Z,83.33
2018-04-16T01:12:18.911Z,83.39
2018-04-16T01:13:21.064Z,83.26
2018-04-16T01:14:18.942Z,83.09
2018-04-16T01:15:21.026Z,83.12
2018-04-16T01:16:21.000Z,83.10
2018-04-16T01:17:56.654Z,83.05
2018-04-16T01:18:56.503Z,83.02
2018-04-16T01:19:56.460Z,82.96
2018-04-16T01:20:56.575Z,82.87
2018-04-16T01:21:58.810Z,82.82
2018-04-16T01:22:56.563Z,82.78
2018-04-16T01:23:56.580Z,82.81
2018-04-16T01:24:58.803Z,82.78
2018-04-16T01:25:56.750Z,82.72
2018-04-16T01:26:58.875Z,82.69
2018-04-16T01:27:58.797Z,82.68
2018-04-16T01:28:58.821Z,82.65
2018-04-16T01:29:56.662Z,82.70
2018-04-16T01:30:58.782Z,82.77
2018-04-16T01:31:58.818Z,82.78
2018-04-16T01:32:58.847Z,82.74
2018-04-16T01:33:58.875Z,82.71
2018-04-16T01:34:56.509Z,82.77
2018-04-16T01:35:56.711Z,82.73
2018-04-16T01:36:58.844Z,82.68
2018-04-16T01:37:56.654Z,82.61
2018-04-16T01:38:56.536Z,82.59
2018-04-16T01:39:56.707Z,82.51
2018-04-16T01:40:58.847Z,82.54
2018-04-16T01:41:56.604Z,82.41
2018-04-16T01:42:56.690Z,82.40
2018-04-16T01:43:56.755Z,82.38
2018-04-16T01:44:56.647Z,82.41
2018-04-16T01:45:56.544Z,82.43
2018-04-16T01:46:56.696Z,82.51
2018-04-16T01:47:58.819Z,82.71
2018-04-16T01:48:56.512Z,82.76
2018-04-16T01:49:56.460Z,82.85
2018-04-16T01:50:56.871Z,82.87
2018-04-16T01:51:58.892Z,82.79
2018-04-16T01:52:56.650Z,82.80
2018-04-16T01:53:56.550Z,82.70
2018-04-16T01:54:56.770Z,82.58
2018-04-16T01:55:58.858Z,82.54
2018-04-16T01:56:56.730Z,82.39
2018-04-16T01:57:56.638Z,82.39
2018-04-16T02:00:13.191Z,82.05
2018-04-16T02:01:10.683Z,81.92
2018-04-16T02:02:10.750Z,81.94
2018-04-16T02:03:10.790Z,81.78
2018-04-16T02:04:11.055Z,81.75
2018-04-16T02:05:11.075Z,81.76
2018-04-16T02:06:11.135Z,81.76
2018-04-16T02:07:11.147Z,81.64
2018-04-16T02:08:13.184Z,81.54
2018-04-16T02:09:11.171Z,81.51
2018-04-16T02:10:10.661Z,81.32
2018-04-16T02:11:11.098Z,81.15
2018-04-16T02:12:13.739Z,81.14
2018-04-16T02:13:10.795Z,81.16
2018-04-16T02:14:10.903Z,81.16
2018-04-16T02:15:13.132Z,81.17
2018-04-16T02:16:10.849Z,81.19
2018-04-16T02:17:10.827Z,81.39
2018-04-16T02:18:10.695Z,81.51
2018-04-16T02:19:11.088Z,81.51
2018-04-16T02:20:10.915Z,81.51
2018-04-16T02:21:10.826Z,81.39
2018-04-16T02:22:13.123Z,81.35
2018-04-16T02:23:10.955Z,81.43
2018-04-16T02:24:11.093Z,81.42
2018-04-16T02:25:10.635Z,81.39
2018-04-16T02:26:11.116Z,81.35
2018-04-16T02:27:10.722Z,81.40
2018-04-16T02:28:11.156Z,81.36
2018-04-16T02:29:11.203Z,81.32
2018-04-16T02:30:10.885Z,81.15
2018-04-16T02:31:10.688Z,81.03
2018-04-16T02:32:11.073Z,80.90
2018-04-16T02:33:10.623Z,80.92
2018-04-16T02:34:10.747Z,80.86
2018-04-16T02:35:11.004Z,80.62
2018-04-16T02:36:11.028Z,80.48
2018-04-16T02:37:11.071Z,80.37
2018-04-16T02:38:11.029Z,80.30
2018-04-16T02:39:10.895Z,80.22
2018-04-16T02:40:10.939Z,80.18
2018-04-16T02:41:11.074Z,80.18
2018-04-16T02:42:10.962Z,80.03
2018-04-16T02:43:11.109Z,79.94
2018-04-16T02:44:11.059Z,80.00
2018-04-16T02:45:13.221Z,79.76
2018-04-16T02:46:13.159Z,79.70
2018-04-16T02:47:13.207Z,79.64
2018-04-16T02:48:11.211Z,79.43
2018-04-16T02:49:13.139Z,79.41
2018-04-16T02:50:13.134Z,79.25
2018-04-16T02:51:10.708Z,79.12
2018-04-16T02:52:11.146Z,79.06
2018-04-16T02:53:11.088Z,79.03
2018-04-16T02:54:11.048Z,79.00
2018-04-16T02:55:13.172Z,78.92
2018-04-16T02:56:13.215Z,79.00
2018-04-16T02:57:11.108Z,78.94
2018-04-16T02:58:13.151Z,79.09
2018-04-16T02:59:10.423Z,78.99
2018-04-16T03:00:10.898Z,79.09
2018-04-16T03:01:10.860Z,79.02
2018-04-16T03:02:10.903Z,79.01
2018-04-16T03:03:10.913Z,79.21
2018-04-16T03:04:10.863Z,79.32
2018-04-16T03:05:10.792Z,79.22
2018-04-16T03:06:11.161Z,79.20
2018-04-16T03:07:11.058Z,79.18
2018-04-16T03:08:11.085Z,79.17
2018-04-16T03:09:10.771Z,79.22
2018-04-16T03:10:11.025Z,79.23
2018-04-16T03:11:13.152Z,79.28
2018-04-16T03:12:10.744Z,79.30
2018-04-16T03:13:11.128Z,79.29
2018-04-16T03:14:11.092Z,79.37
2018-04-16T03:15:13.219Z,79.47
2018-04-16T03:16:10.801Z,79.48
2018-04-16T03:17:11.169Z,79.60
2018-04-16T03:18:11.080Z,79.49
2018-04-16T03:19:13.240Z,79.49
2018-04-16T03:20:10.734Z,79.62
2018-04-16T03:21:10.748Z,79.70
2018-04-16T03:22:13.203Z,79.62
2018-04-16T03:23:10.815Z,79.67
2018-04-16T03:24:10.810Z,79.79
2018-04-16T03:25:11.170Z,79.86
2018-04-16T03:26:11.080Z,79.92
2018-04-16T03:27:13.199Z,79.93
2018-04-16T03:28:13.167Z,79.85
2018-04-16T03:29:11.123Z,80.02
2018-04-16T03:30:11.137Z,80.09
2018-04-16T03:31:11.001Z,80.12
2018-04-16T03:32:11.024Z,80.22
2018-04-16T03:33:11.008Z,80.25
2018-04-16T03:34:13.160Z,80.41
2018-04-16T03:35:13.199Z,80.46
2018-04-16T03:36:10.908Z,80.48
2018-04-16T03:37:10.719Z,80.48
2018-04-16T03:38:10.764Z,80.43
2018-04-16T03:39:10.799Z,80.46
2018-04-16T03:40:11.211Z,80.47
2018-04-16T03:41:11.232Z,80.41
2018-04-16T03:42:10.874Z,80.40
2018-04-16T03:43:10.933Z,80.42
2018-04-16T03:44:10.759Z,80.44
2018-04-16T03:45:10.889Z,80.34
2018-04-16T03:46:10.945Z,80.35
2018-04-16T03:47:13.162Z,80.32
2018-04-16T03:48:10.942Z,80.32
2018-04-16T03:49:13.190Z,80.33
2018-04-16T03:50:10.991Z,80.37
2018-04-16T03:51:10.935Z,80.34
2018-04-16T03:52:10.936Z,80.26
2018-04-16T03:53:10.869Z,80.19
2018-04-16T03:54:13.175Z,80.27
2018-04-16T03:55:11.380Z,80.32
2018-04-16T03:56:10.803Z,80.20
2018-04-16T03:57:10.837Z,80.12
2018-04-16T03:58:10.803Z,80.21
2018-04-16T03:59:10.006Z,80.12
2018-04-16T04:00:10.843Z,80.04
2018-04-16T04:01:10.936Z,80.09
2018-04-16T04:02:10.908Z,80.15
2018-04-16T04:03:10.951Z,79.98
2018-04-16T04:04:11.036Z,79.87
2018-04-16T04:05:10.985Z,79.86
2018-04-16T04:06:11.027Z,79.77
2018-04-16T04:07:10.986Z,79.75
2018-04-16T04:08:10.980Z,79.73
2018-04-16T04:09:11.082Z,79.75
2018-04-16T04:10:10.988Z,79.71
2018-04-16T04:11:48.224Z,79.77
2018-04-16T04:12:47.843Z,79.73
2018-04-16T04:13:50.123Z,79.71
2018-04-16T04:14:47.991Z,79.68
2018-04-16T04:15:47.883Z,79.74
2018-04-16T04:16:47.908Z,79.76
2018-04-16T04:17:47.928Z,79.78
2018-04-16T04:18:48.194Z,79.74
2018-04-16T04:19:48.178Z,79.86
2018-04-16T04:20:47.887Z,79.88
2018-04-16T04:21:47.895Z,79.80
2018-04-16T04:22:47.828Z,79.86
2018-04-16T04:23:50.118Z,79.94
2018-04-16T04:24:47.908Z,80.13
2018-04-16T04:25:47.826Z,80.20
2018-04-16T04:26:47.780Z,80.26
2018-04-16T04:27:47.774Z,80.37
2018-04-16T04:28:48.146Z,80.38
2018-04-16T04:29:47.881Z,80.42
2018-04-16T04:30:50.162Z,80.43
2018-04-16T04:31:48.179Z,80.44
2018-04-16T04:32:48.219Z,80.40
2018-04-16T04:33:47.682Z,80.47
2018-04-16T04:34:50.113Z,80.56
2018-04-16T04:35:48.107Z,80.54
2018-04-16T04:36:48.075Z,80.50
2018-04-16T04:37:48.248Z,80.41
2018-04-16T04:38:50.179Z,80.68
2018-04-16T04:39:47.987Z,80.85
2018-04-16T04:40:48.000Z,80.85
2018-04-16T04:41:48.204Z,80.76
2018-04-16T04:43:18.249Z,80.85
2018-04-16T04:43:49.815Z,80.95
2018-04-16T04:44:49.940Z,81.09
2018-04-16T04:45:49.853Z,81.19
2018-04-16T04:46:49.817Z,81.33
2018-04-16T04:47:49.892Z,81.22
2018-04-16T04:48:49.880Z,81.23
2018-04-16T04:49:49.872Z,81.34
2018-04-16T04:51:19.302Z,81.44
2018-04-16T04:51:48.578Z,81.46
2018-04-16T04:52:48.750Z,81.50
2018-04-16T04:53:48.887Z,81.55
2018-04-16T04:54:51.038Z,81.59
2018-04-16T04:55:48.859Z,81.23
2018-04-16T04:56:51.125Z,81.09
2018-04-16T04:57:48.826Z,81.12
2018-04-16T04:58:48.980Z,81.09
2018-04-16T04:59:49.013Z,80.95
2018-04-16T05:00:51.534Z,80.87
2018-04-16T05:01:48.955Z,80.79
2018-04-16T05:02:48.906Z,80.59
2018-04-16T05:03:49.121Z,80.34
2018-04-16T05:04:48.834Z,80.03
2018-04-16T05:05:48.642Z,79.94
2018-04-16T05:06:48.739Z,79.92
2018-04-16T05:07:48.683Z,79.72
2018-04-16T05:08:48.875Z,79.67
2018-04-16T05:09:51.125Z,79.39
2018-04-16T05:10:46.921Z,79.44
2018-04-16T05:11:51.046Z,79.33
2018-04-16T05:12:48.859Z,79.26
2018-04-16T05:13:48.880Z,79.33
2018-04-16T05:14:48.917Z,79.16
2018-04-16T05:15:48.880Z,78.94
2018-04-16T05:16:48.788Z,78.79
2018-04-16T05:17:49.033Z,78.77
2018-04-16T05:18:49.046Z,78.48
2018-04-16T05:19:48.895Z,77.88
2018-04-16T05:20:48.939Z,78.02
2018-04-16T05:21:51.067Z,77.75
2018-04-16T05:22:48.855Z,77.88
2018-04-16T05:23:48.724Z,77.53
2018-04-16T05:24:48.971Z,77.51
2018-04-16T05:25:48.950Z,77.81
2018-04-16T05:26:48.802Z,77.80
2018-04-16T05:27:51.071Z,77.14
2018-04-16T05:28:51.104Z,77.02
2018-04-16T05:29:48.814Z,77.11
2018-04-16T05:30:48.760Z,77.11
2018-04-16T05:31:48.670Z,77.02
2018-04-16T05:32:49.065Z,76.80
2018-04-16T05:33:51.095Z,76.58
2018-04-16T05:34:49.131Z,76.68
2018-04-16T05:35:49.069Z,76.36
2018-04-16T05:36:49.068Z,76.52
2018-04-16T05:37:51.126Z,76.08
2018-04-16T05:38:48.726Z,76.14
2018-04-16T05:39:48.847Z,76.31
2018-04-16T05:40:48.798Z,76.13
2018-04-16T05:41:48.590Z,76.19
2018-04-16T05:42:48.703Z,76.23
2018-04-16T05:43:48.734Z,76.40
2018-04-16T05:44:51.121Z,76.40
2018-04-16T05:45:51.051Z,76.51
2018-04-16T05:46:49.096Z,76.47
2018-04-16T05:47:49.139Z,75.48
2018-04-16T05:48:48.606Z,75.76
2018-04-16T05:49:49.056Z,75.74
2018-04-16T05:50:48.645Z,75.73
2018-04-16T05:51:51.076Z,75.67
2018-04-16T05:52:48.792Z,75.39
2018-04-16T05:53:48.779Z,75.18
2018-04-16T05:54:48.817Z,75.47
2018-04-16T05:55:48.663Z,75.04
2018-04-16T05:56:51.095Z,75.01
2018-04-16T05:57:49.110Z,74.89
2018-04-16T05:58:48.687Z,74.70
2018-04-16T05:59:48.798Z,74.24
2018-04-16T06:00:48.844Z,73.95
2018-04-16T06:01:48.870Z,73.55
2018-04-16T06:02:48.935Z,72.58
2018-04-16T06:03:48.913Z,72.25
2018-04-16T06:04:48.961Z,72.16
2018-04-16T06:05:48.956Z,72.34
2018-04-16T06:06:51.079Z,71.72
2018-04-16T06:07:48.934Z,71.38
2018-04-16T06:08:48.984Z,70.46
2018-04-16T06:09:51.126Z,69.69
2018-04-16T06:10:51.022Z,68.88
2018-04-16T06:11:46.070Z,68.07
2018-04-16T06:12:49.219Z,68.49
2018-04-16T06:13:48.834Z,66.71
2018-04-16T06:14:48.967Z,67.02
2018-04-16T06:15:48.862Z,67.54
2018-04-16T06:16:48.636Z,66.75
2018-04-16T06:17:49.059Z,67.33
2018-04-16T06:18:48.790Z,66.69
2018-04-16T06:19:48.920Z,66.44
2018-04-16T06:20:48.863Z,66.45
2018-04-16T06:22:16.227Z,65.53
2018-04-16T06:22:48.719Z,65.47
2018-04-16T06:23:48.766Z,65.16
2018-04-16T06:24:48.991Z,64.37
2018-04-16T06:25:49.044Z,63.86
2018-04-16T06:26:48.746Z,63.81
2018-04-16T06:27:48.856Z,63.66
2018-04-16T06:28:48.793Z,63.60
2018-04-16T06:29:49.158Z,63.80
2018-04-16T06:30:48.713Z,63.66
2018-04-16T06:32:25.739Z,63.24
2018-04-16T06:33:25.752Z,62.59
2018-04-16T06:34:23.699Z,62.22
2018-04-16T06:35:23.270Z,62.13
2018-04-16T06:36:25.839Z,62.63
2018-04-16T06:37:25.771Z,62.24
2018-04-16T06:38:28.824Z,62.87
2018-04-16T06:39:23.758Z,62.76
2018-04-16T06:40:23.672Z,63.27
2018-04-16T06:41:23.566Z,62.73
2018-04-16T06:42:23.668Z,62.64
2018-04-16T06:43:23.689Z,61.49
2018-04-16T06:44:23.651Z,61.66
2018-04-16T06:45:23.697Z,62.18
2018-04-16T06:46:23.700Z,62.11
2018-04-16T06:47:23.824Z,62.26
2018-04-16T06:48:23.391Z,62.18
2018-04-16T06:49:23.831Z,62.44
2018-04-16T06:50:25.768Z,61.98
2018-04-16T06:51:23.371Z,62.33
2018-04-16T06:52:23.647Z,62.13
2018-04-16T06:53:23.591Z,62.10
2018-04-16T06:54:23.718Z,61.98
2018-04-16T06:55:23.624Z,60.87
2018-04-16T06:56:25.793Z,61.07
2018-04-16T06:57:23.662Z,60.98
2018-04-16T06:58:23.650Z,60.85
2018-04-16T06:59:23.547Z,60.37
2018-04-16T07:00:54.778Z,60.05
2018-04-16T07:01:25.540Z,60.44
2018-04-16T07:02:25.526Z,59.76
2018-04-16T07:03:25.535Z,58.83
2018-04-16T07:04:25.570Z,58.98
2018-04-16T07:05:25.497Z,59.90
2018-04-16T07:06:25.515Z,60.47
2018-04-16T07:07:25.568Z,61.46
2018-04-16T07:08:25.563Z,61.83
2018-04-16T07:09:46.599Z,60.00
2018-04-16T07:10:26.459Z,60.21
2018-04-16T07:11:26.406Z,61.21
2018-04-16T07:12:24.150Z,60.97
2018-04-16T07:13:24.054Z,61.15
2018-04-16T07:14:24.152Z,61.87
2018-04-16T07:15:24.063Z,61.15
2018-04-16T07:16:24.094Z,61.63
2018-04-16T07:17:23.981Z,60.99
2018-04-16T07:18:24.355Z,60.44
2018-04-16T07:19:24.427Z,60.82
2018-04-16T07:20:23.957Z,61.88
2018-04-16T07:21:24.358Z,60.20
2018-04-16T07:22:24.007Z,61.15
2018-04-16T07:23:24.024Z,61.19
2018-04-16T07:24:26.454Z,60.56
2018-04-16T07:25:24.191Z,59.78
2018-04-16T07:26:24.182Z,60.03
2018-04-16T07:27:24.456Z,60.72
2018-04-16T07:28:26.432Z,60.68
2018-04-16T07:29:24.391Z,59.99
2018-04-16T07:30:23.923Z,58.46
2018-04-16T07:31:23.638Z,59.91
2018-04-16T07:32:24.335Z,59.04
2018-04-16T07:33:23.907Z,59.97
2018-04-16T07:34:59.587Z,59.21
2018-04-16T07:36:01.812Z,57.99
2018-04-16T07:36:59.398Z,57.64
2018-04-16T07:37:59.510Z,58.24
2018-04-16T07:39:01.747Z,57.67
2018-04-16T07:39:59.422Z,59.00
2018-04-16T07:40:59.539Z,59.58
2018-04-16T07:41:59.539Z,60.25
2018-04-16T07:42:59.605Z,59.05
2018-04-16T07:43:59.700Z,61.08
2018-04-16T07:44:59.866Z,59.90
2018-04-16T07:46:01.815Z,58.92
2018-04-16T07:46:59.813Z,58.87
2018-04-16T07:47:59.835Z,59.58
2018-04-16T07:49:01.791Z,60.14
2018-04-16T07:49:59.436Z,59.28
2018-04-16T07:50:59.787Z,58.00
2018-04-16T07:51:59.782Z,59.75
2018-04-16T07:52:59.670Z,59.77
2018-04-16T07:53:59.582Z,60.03
2018-04-16T07:54:59.695Z,60.00
2018-04-16T07:55:59.522Z,60.94
2018-04-16T07:56:59.470Z,58.46
2018-04-16T07:57:59.568Z,59.23
2018-04-16T07:59:01.835Z,59.28
2018-04-16T07:59:59.359Z,59.10
2018-04-16T08:00:59.377Z,58.19
2018-04-16T08:01:59.411Z,60.02
2018-04-16T08:02:59.498Z,58.65
2018-04-16T08:03:59.427Z,57.80
2018-04-16T08:04:59.437Z,57.95
2018-04-16T08:05:59.432Z,54.92
2018-04-16T08:06:59.872Z,58.08
2018-04-16T08:07:59.516Z,57.04
2018-04-16T08:08:59.523Z,58.52
2018-04-16T08:09:59.508Z,56.82
2018-04-16T08:10:59.661Z,55.81
2018-04-16T08:11:59.407Z,58.43
2018-04-16T08:13:01.833Z,57.21
2018-04-16T08:14:01.749Z,58.07
2018-04-16T08:15:01.780Z,58.16
2018-04-16T08:16:01.855Z,54.99
2018-04-16T08:17:01.779Z,56.85
2018-04-16T08:18:01.836Z,58.16
2018-04-16T08:19:01.765Z,56.37
2018-04-16T08:19:59.509Z,57.90
2018-04-16T08:20:59.780Z,59.03
2018-04-16T08:21:59.895Z,57.73
2018-04-16T08:23:01.829Z,56.55
2018-04-16T08:23:59.794Z,57.03
2018-04-16T08:24:59.356Z,57.44
2018-04-16T08:25:59.543Z,57.45
2018-04-16T08:26:59.595Z,57.12
2018-04-16T08:27:59.554Z,56.71
2018-04-16T08:28:59.669Z,57.96
2018-04-16T08:29:59.504Z,60.04
2018-04-16T08:30:59.568Z,58.57
2018-04-16T08:31:59.388Z,57.33
2018-04-16T08:32:59.483Z,56.30
2018-04-16T08:33:59.161Z,57.00
2018-04-16T08:34:59.976Z,56.57
2018-04-16T08:36:36.112Z,58.71
2018-04-16T08:37:38.355Z,55.34
2018-04-16T08:38:38.407Z,55.59
2018-04-16T08:39:38.355Z,57.17
2018-04-16T08:40:38.374Z,56.16
2018-04-16T08:41:36.307Z,52.57
2018-04-16T08:42:36.200Z,57.69
2018-04-16T08:43:38.339Z,55.36
2018-04-16T08:44:38.390Z,55.25
2018-04-16T08:45:38.332Z,56.84
2018-04-16T08:46:35.934Z,55.60
2018-04-16T08:47:38.366Z,56.27
2018-04-16T08:48:35.967Z,54.68
2018-04-16T08:49:38.387Z,54.06
2018-04-16T08:50:36.121Z,55.44
2018-04-16T08:51:38.378Z,58.69
2018-04-16T08:52:38.430Z,55.98
2018-04-16T08:53:38.399Z,56.30
2018-04-16T08:54:38.364Z,56.12
2018-04-16T08:55:36.067Z,54.73
2018-04-16T08:56:38.358Z,53.72
2018-04-16T08:57:38.389Z,53.21
2018-04-16T08:58:36.088Z,52.98
2018-04-16T08:59:36.084Z,52.00
2018-04-16T09:00:38.369Z,53.82
2018-04-16T09:01:38.363Z,55.57
2018-04-16T09:02:36.051Z,54.10
2018-04-16T09:03:38.379Z,53.60
2018-04-16T09:04:36.099Z,54.20
2018-04-16T09:05:38.397Z,53.54
2018-04-16T09:06:38.426Z,54.02
2018-04-16T09:07:38.362Z,54.55
2018-04-16T09:08:38.393Z,51.43
2018-04-16T09:09:36.326Z,52.95
2018-04-16T09:10:38.360Z,51.96
2018-04-16T09:11:36.179Z,54.31
2018-04-16T09:12:36.272Z,50.14
2018-04-16T09:13:38.402Z,50.27
2018-04-16T09:14:42.475Z,51.33
2018-04-16T09:15:36.273Z,50.95
2018-04-16T09:16:38.395Z,51.21
2018-04-16T09:17:36.433Z,52.60
2018-04-16T09:18:36.212Z,53.04
2018-04-16T09:19:38.334Z,52.48
2018-04-16T09:20:38.346Z,50.85
2018-04-16T09:21:38.384Z,52.60
2018-04-16T09:22:36.179Z,53.57
2018-04-16T09:23:36.099Z,51.48
2018-04-16T09:24:38.410Z,53.46
2018-04-16T09:25:36.101Z,54.66
2018-04-16T09:26:36.162Z,55.85
2018-04-16T09:27:38.433Z,52.42
2018-04-16T09:28:36.127Z,53.71
2018-04-16T09:29:38.398Z,51.09
2018-04-16T09:30:36.338Z,52.72
2018-04-16T09:31:38.387Z,51.33
2018-04-16T09:32:36.353Z,51.96
2018-04-16T09:33:35.930Z,53.06
2018-04-16T09:34:38.362Z,50.95
2018-04-16T09:35:35.667Z,51.16
2018-04-16T09:36:35.956Z,53.28
2018-04-16T09:37:38.388Z,48.82
2018-04-16T09:38:38.355Z,48.81
2018-04-16T09:39:38.445Z,48.22
2018-04-16T09:40:36.199Z,50.07
2018-04-16T09:41:38.452Z,49.54
2018-04-16T09:42:38.383Z,50.49
2018-04-16T09:43:36.135Z,54.77
2018-04-16T09:44:36.260Z,50.95
2018-04-16T09:45:38.391Z,49.68
2018-04-16T09:46:36.466Z,48.77
2018-04-16T09:47:38.390Z,50.83
2018-04-16T09:48:36.287Z,48.48
2018-04-16T09:49:36.353Z,50.27
2018-04-16T09:50:38.404Z,47.95
2018-04-16T09:51:36.201Z,49.72
2018-04-16T09:52:36.154Z,47.85
2018-04-16T09:53:36.227Z,50.99
2018-04-16T09:54:38.459Z,49.89
2018-04-16T09:55:36.214Z,49.76
2018-04-16T09:56:36.377Z,51.08
2018-04-16T09:57:36.382Z,52.04
2018-04-16T09:58:36.407Z,52.39
2018-04-16T09:59:36.366Z,52.59
2018-04-16T10:00:38.394Z,50.59
2018-04-16T10:01:36.085Z,50.64
2018-04-16T10:02:36.099Z,49.73
2018-04-16T10:03:38.386Z,49.25
2018-04-16T10:04:38.423Z,50.79
2018-04-16T10:05:38.374Z,52.62
2018-04-16T10:06:36.043Z,50.28
2018-04-16T10:07:36.124Z,50.57
2018-04-16T10:08:36.102Z,52.27
2018-04-16T10:09:38.414Z,49.19
2018-04-16T10:10:36.309Z,48.21
2018-04-16T10:11:36.359Z,46.86
2018-04-16T10:12:38.418Z,46.38
2018-04-16T10:13:35.974Z,48.65
2018-04-16T10:14:36.429Z,45.72
2018-04-16T10:15:35.998Z,46.41
2018-04-16T10:16:38.432Z,48.63
2018-04-16T10:17:38.460Z,48.97
2018-04-16T10:18:36.185Z,47.23
2018-04-16T10:19:36.212Z,49.71
2018-04-16T10:20:38.434Z,48.58
2018-04-16T10:21:36.447Z,45.71
2018-04-16T10:22:38.386Z,46.69
2018-04-16T10:23:36.347Z,44.81
2018-04-16T10:24:36.395Z,46.34
2018-04-16T10:25:36.362Z,46.27
2018-04-16T10:26:38.383Z,43.89
2018-04-16T10:27:36.211Z,45.17
2018-04-16T10:28:38.466Z,45.38
2018-04-16T10:29:36.359Z,44.47
2018-04-16T10:30:38.795Z,45.75
2018-04-16T10:31:36.367Z,47.35
2018-04-16T10:32:36.455Z,48.70
2018-04-16T10:33:38.428Z,45.95
2018-04-16T10:34:38.475Z,42.47
2018-04-16T10:35:35.872Z,41.59
2018-04-16T10:36:36.179Z,45.31
2018-04-16T10:37:36.211Z,44.38
2018-04-16T10:38:36.167Z,46.11
2018-04-16T10:39:36.120Z,50.12
2018-04-16T10:40:36.178Z,47.05
2018-04-16T10:41:36.246Z,44.83
2018-04-16T10:42:36.301Z,44.70
2018-04-16T10:44:07.039Z,46.45
2018-04-16T10:44:38.084Z,46.92
2018-04-16T10:45:38.145Z,49.61
2018-04-16T10:46:38.164Z,50.54
2018-04-16T10:47:38.112Z,49.96
2018-04-16T10:48:38.047Z,50.79
2018-04-16T10:49:38.121Z,45.16
2018-04-16T10:50:59.194Z,44.70
2018-04-16T10:51:36.678Z,44.87
2018-04-16T10:52:36.769Z,45.67
2018-04-16T10:53:36.684Z,45.11
2018-04-16T10:54:36.765Z,46.23
2018-04-16T10:55:36.924Z,44.13
2018-04-16T10:56:36.506Z,45.35
2018-04-16T10:57:36.978Z,42.63
2018-04-16T10:58:37.062Z,43.67
2018-04-16T10:59:39.021Z,42.43
2018-04-16T11:00:38.982Z,42.94
2018-04-16T11:01:39.010Z,42.51
2018-04-16T11:02:36.700Z,40.73
2018-04-16T11:03:36.751Z,42.90
2018-04-16T11:04:36.701Z,42.71
2018-04-16T11:05:38.965Z,41.40
2018-04-16T11:06:36.554Z,41.41
2018-04-16T11:07:36.575Z,40.26
2018-04-16T11:08:36.776Z,41.90
2018-04-16T11:09:36.770Z,40.12
2018-04-16T11:11:04.708Z,44.35
2018-04-16T11:11:38.783Z,43.23
2018-04-16T11:13:50.524Z,38.12
2018-04-16T11:14:50.526Z,40.96
2018-04-16T11:15:50.484Z,38.92
2018-04-16T11:16:50.564Z,40.35
2018-04-16T11:17:52.782Z,40.30
2018-04-16T11:18:52.843Z,37.31
2018-04-16T11:19:53.058Z,38.60
2018-04-16T11:20:52.791Z,40.70
2018-04-16T11:21:50.445Z,40.08
2018-04-16T11:22:50.633Z,40.63
2018-04-16T11:23:50.750Z,40.32
2018-04-16T11:24:50.630Z,42.70
2018-04-16T11:25:50.619Z,37.54
2018-04-16T11:26:50.587Z,38.11
2018-04-16T11:27:50.811Z,38.75
2018-04-16T11:29:26.614Z,43.54
2018-04-16T11:30:28.734Z,43.74
2018-04-16T11:31:26.315Z,39.37
2018-04-16T11:32:28.738Z,40.71
2018-04-16T11:33:26.358Z,41.34
2018-04-16T11:34:26.375Z,44.63
2018-04-16T11:35:26.441Z,41.76
2018-04-16T11:36:28.688Z,48.29
2018-04-16T11:37:28.731Z,44.29
2018-04-16T11:38:26.542Z,41.76
2018-04-16T11:39:26.511Z,42.03
2018-04-16T11:40:26.651Z,42.64
2018-04-16T11:41:28.687Z,43.55
2018-04-16T11:42:26.717Z,41.84
2018-04-16T11:43:26.828Z,43.80
2018-04-16T11:44:26.343Z,42.48
2018-04-16T11:45:26.339Z,45.26
2018-04-16T11:46:26.538Z,43.04
2018-04-16T11:47:26.610Z,42.15
2018-04-16T11:48:26.594Z,41.55
2018-04-16T11:49:26.538Z,39.70
2018-04-16T11:50:26.499Z,45.32
2018-04-16T11:51:26.541Z,39.59
2018-04-16T11:52:28.684Z,41.16
2018-04-16T11:53:28.717Z,39.47
2018-04-16T11:54:26.727Z,45.10
2018-04-16T11:55:28.684Z,41.36
2018-04-16T11:57:05.818Z,40.74
2018-04-16T11:58:05.844Z,42.22
2018-04-16T11:59:07.964Z,41.51
2018-04-16T12:00:07.978Z,40.14
2018-04-16T12:01:08.000Z,40.28
2018-04-16T12:02:05.572Z,40.91
2018-04-16T12:03:05.934Z,44.13
2018-04-16T12:04:05.852Z,40.97
2018-04-16T12:05:05.751Z,40.21
2018-04-16T12:06:07.966Z,44.73
2018-04-16T12:07:05.753Z,47.82
2018-04-16T12:08:05.680Z,46.28
2018-04-16T12:09:08.002Z,43.75
2018-04-16T12:10:09.528Z,48.41
2018-04-16T12:11:07.103Z,43.20
2018-04-16T12:12:07.076Z,45.09
2018-04-16T12:13:07.119Z,46.29
2018-04-16T12:14:07.096Z,49.32
2018-04-16T12:16:07.335Z,43.88
2018-04-16T12:17:05.929Z,44.76
2018-04-16T12:18:05.936Z,46.78
2018-04-16T12:19:05.755Z,43.19
2018-04-16T12:20:05.931Z,46.22
2018-04-16T12:21:05.927Z,46.21
2018-04-16T12:22:05.903Z,45.35
2018-04-16T12:23:05.765Z,45.49
2018-04-16T12:24:05.856Z,44.60
2018-04-16T12:25:05.765Z,41.79
2018-04-16T12:26:05.876Z,51.23
2018-04-16T12:27:05.851Z,51.09
2018-04-16T12:28:06.023Z,48.53
2018-04-16T12:29:05.499Z,52.56
2018-04-16T12:30:08.055Z,53.69
2018-04-16T12:31:06.028Z,52.00
2018-04-16T12:32:05.989Z,45.87
2018-04-16T12:33:05.701Z,47.31
2018-04-16T12:34:05.631Z,49.95
2018-04-16T12:35:05.571Z,47.85
2018-04-16T12:36:05.979Z,49.91
2018-04-16T12:37:05.994Z,49.52
2018-04-16T12:38:05.939Z,49.29
2018-04-16T12:39:08.033Z,49.29
2018-04-16T12:40:07.993Z,52.83
2018-04-16T12:41:05.827Z,49.07
2018-04-16T12:42:05.769Z,51.74
2018-04-16T12:43:05.822Z,48.90
2018-04-16T12:44:08.046Z,50.71
2018-04-16T12:45:05.654Z,50.26
2018-04-16T12:46:06.015Z,47.32
2018-04-16T12:47:08.057Z,46.14
2018-04-16T12:48:08.039Z,49.19
2018-04-16T12:49:07.975Z,48.34
2018-04-16T12:50:08.023Z,51.59
2018-04-16T12:51:08.049Z,53.04
2018-04-16T12:52:05.961Z,52.86
2018-04-16T12:53:05.834Z,50.42
2018-04-16T12:54:05.672Z,52.55
2018-04-16T12:55:05.647Z,53.49
2018-04-16T12:56:05.047Z,52.53
2018-04-16T12:57:05.627Z,53.23
2018-04-16T12:58:08.043Z,56.65
2018-04-16T12:59:05.655Z,55.13
2018-04-16T13:00:06.092Z,55.10
2018-04-16T13:01:05.796Z,54.66